createdAt,value
2018-06-25T00:00:46.642Z,100665.22
2018-06-25T00:03:15.015Z,100670.00
2018-06-25T00:05:43.394Z,100672.34
2018-06-25T00:09:41.274Z,100667.03
2018-06-25T00:12:09.576Z,100668.63
2018-06-25T00:14:37.913Z,100671.04
2018-06-25T00:17:06.308Z,100674.45
2018-06-25T00:19:34.786Z,100678.50
2018-06-25T00:22:03.172Z,100680.64
2018-06-25T00:24:31.550Z,100672.90
2018-06-25T00:26:59.868Z,100679.05
2018-06-25T00:29:28.328Z,100672.64
2018-06-25T00:31:56.695Z,100675.83
2018-06-25T00:34:25.042Z,100670.19
2018-06-25T00:36:53.428Z,100675.78
2018-06-25T00:39:21.743Z,100672.08
2018-06-25T00:41:53.682Z,100679.24
2018-06-25T00:44:22.142Z,100672.34
2018-06-25T00:46:50.531Z,100673.97
2018-06-25T00:49:18.906Z,100669.66
2018-06-25T00:51:47.244Z,100669.11
2018-06-25T00:54:15.534Z,100678.75
2018-06-25T00:56:43.909Z,100670.75
2018-06-25T00:59:23.391Z,100673.11
2018-06-25T01:01:52.129Z,100679.50
2018-06-25T01:04:20.514Z,100672.56
2018-06-25T01:06:48.842Z,100675.53
2018-06-25T01:09:17.368Z,100677.91
2018-06-25T01:11:45.717Z,100671.00
2018-06-25T01:14:14.081Z,100676.86
2018-06-25T01:16:42.397Z,100677.64
2018-06-25T01:19:10.854Z,100674.37
2018-06-25T01:21:39.170Z,100680.20
2018-06-25T01:24:07.532Z,100681.27
2018-06-25T01:26:35.875Z,100683.69
2018-06-25T01:29:04.325Z,100681.05
2018-06-25T01:31:32.673Z,100682.42
2018-06-25T01:34:00.966Z,100689.32
2018-06-25T01:36:29.324Z,100684.28
2018-06-25T01:38:57.913Z,100684.28
2018-06-25T01:41:26.250Z,100689.81
2018-06-25T01:43:54.638Z,100689.28
2018-06-25T01:46:23.010Z,100683.69
2018-06-25T01:48:51.384Z,100689.51
2018-06-25T01:51:19.764Z,100689.55
2018-06-25T01:53:48.904Z,100694.63
2018-06-25T01:56:17.306Z,100686.88
2018-06-25T01:58:45.774Z,100693.03
2018-06-25T02:01:14.210Z,100684.73
2018-06-25T02:03:42.560Z,100685.80
2018-06-25T02:06:10.982Z,100684.20
2018-06-25T02:08:39.434Z,100686.66
2018-06-25T02:11:07.874Z,100685.80
2018-06-25T02:13:36.451Z,100681.80
2018-06-25T02:16:04.860Z,100682.35
2018-06-25T02:18:33.218Z,100677.08
2018-06-25T02:21:01.590Z,100680.34
2018-06-25T02:23:29.956Z,100681.05
2018-06-25T02:25:58.288Z,100680.80
2018-06-25T02:28:26.672Z,100679.45
2018-06-25T02:30:55.037Z,100688.06
2018-06-25T02:33:23.405Z,100685.65
2018-06-25T02:35:51.773Z,100679.01
2018-06-25T02:38:20.255Z,100683.25
2018-06-25T02:40:48.599Z,100683.25
2018-06-25T02:43:16.911Z,100685.14
2018-06-25T02:45:45.288Z,100689.44
2018-06-25T02:48:13.764Z,100689.73
2018-06-25T02:50:42.140Z,100692.14
2018-06-25T02:53:10.638Z,100700.19
2018-06-25T02:55:38.968Z,100700.19
2018-06-25T02:58:07.382Z,100703.61
2018-06-25T03:00:35.730Z,100708.17
2018-06-25T03:03:04.204Z,100707.13
2018-06-25T03:05:32.541Z,100710.84
2018-06-25T03:08:00.970Z,100707.91
2018-06-25T03:10:29.329Z,100710.05
2018-06-25T03:12:57.749Z,100706.87
2018-06-25T03:15:26.080Z,100706.61
2018-06-25T03:17:54.537Z,100698.34
2018-06-25T03:20:23.158Z,100700.19
2018-06-25T03:22:51.502Z,100704.16
2018-06-25T03:25:20.029Z,100703.91
2018-06-25T03:27:48.394Z,100699.64
2018-06-25T03:30:16.844Z,100701.27
2018-06-25T03:32:45.274Z,100706.91
2018-06-25T03:35:13.692Z,100706.94
2018-06-25T03:37:42.119Z,100699.45
2018-06-25T03:40:10.450Z,100701.01
2018-06-25T03:42:38.902Z,100704.98
2018-06-25T03:45:07.325Z,100714.87
2018-06-25T03:47:35.828Z,100713.88
2018-06-25T03:50:04.182Z,100714.69
2018-06-25T03:52:32.446Z,100715.77
2018-06-25T03:55:00.758Z,100721.39
2018-06-25T03:57:29.118Z,100720.80
2018-06-25T03:59:57.716Z,100722.95
2018-06-25T04:02:26.156Z,100730.19
2018-06-25T04:04:54.453Z,100734.22
2018-06-25T04:07:22.816Z,100742.23
2018-06-25T04:09:51.278Z,100739.53
2018-06-25T04:12:19.676Z,100737.45
2018-06-25T04:14:48.092Z,100750.24
2018-06-25T04:17:16.596Z,100742.78
2018-06-25T04:19:44.972Z,100748.68
2018-06-25T04:22:13.335Z,100749.46
2018-06-25T04:24:42.634Z,100751.06
2018-06-25T04:27:11.090Z,100760.11
2018-06-25T04:29:44.485Z,100768.16
2018-06-25T04:32:12.854Z,100768.13
2018-06-25T04:34:41.334Z,100774.80
2018-06-25T04:37:09.694Z,100781.47
2018-06-25T04:39:38.060Z,100776.65
2018-06-25T04:42:06.511Z,100786.22
2018-06-25T04:44:34.930Z,100779.03
2018-06-25T04:47:10.227Z,100783.78
2018-06-25T04:49:38.822Z,100781.08
2018-06-25T04:52:07.284Z,100788.57
2018-06-25T04:54:36.793Z,100788.28
2018-06-25T04:57:05.435Z,100792.81
2018-06-25T04:59:33.897Z,100797.92
2018-06-25T05:02:02.246Z,100795.31
2018-06-25T05:04:30.986Z,100800.39
2018-06-25T05:06:59.356Z,100798.50
2018-06-25T05:09:27.702Z,100803.06
2018-06-25T05:11:56.072Z,100794.47
2018-06-25T05:14:24.412Z,100799.80
2018-06-25T05:16:52.813Z,100805.12
2018-06-25T05:19:21.355Z,100803.48
2018-06-25T05:21:49.786Z,100806.39
2018-06-25T05:24:18.209Z,100816.75
2018-06-25T05:26:46.646Z,100812.19
2018-06-25T05:29:15.415Z,100819.13
2018-06-25T05:31:43.733Z,100820.92
2018-06-25T05:34:12.177Z,100823.06
2018-06-25T05:36:40.574Z,100826.23
2018-06-25T05:39:10.548Z,100829.16
2018-06-25T05:41:38.949Z,100832.55
2018-06-25T05:44:07.442Z,100837.37
2018-06-25T05:46:36.116Z,100839.23
2018-06-25T05:49:04.512Z,100837.11
2018-06-25T05:51:32.895Z,100840.56
2018-06-25T05:54:01.294Z,100832.52
2018-06-25T05:56:29.727Z,100840.53
2018-06-25T05:58:58.335Z,100839.00
2018-06-25T06:01:27.132Z,100840.01
2018-06-25T06:03:55.563Z,100843.50
2018-06-25T06:06:24.087Z,100843.95
2018-06-25T06:08:52.586Z,100846.84
2018-06-25T06:11:21.102Z,100845.12
2018-06-25T06:13:49.417Z,100848.28
2018-06-25T06:16:17.826Z,100851.89
2018-06-25T06:18:46.292Z,100859.35
2018-06-25T06:21:14.778Z,100861.20
2018-06-25T06:23:43.197Z,100854.97
2018-06-25T06:26:11.648Z,100853.86
2018-06-25T06:28:40.108Z,100852.19
2018-06-25T06:31:08.639Z,100849.93
2018-06-25T06:33:37.076Z,100843.80
2018-06-25T06:36:05.618Z,100846.55
2018-06-25T06:38:34.060Z,100852.97
2018-06-25T06:41:02.457Z,100859.91
2018-06-25T06:43:30.932Z,100857.17
2018-06-25T06:45:59.468Z,100856.80
2018-06-25T06:48:27.934Z,100859.14
2018-06-25T06:50:56.487Z,100860.47
2018-06-25T06:53:24.950Z,100863.07
2018-06-25T06:55:53.327Z,100859.50
2018-06-25T06:58:21.884Z,100859.41
2018-06-25T07:00:50.342Z,100866.36
2018-06-25T07:03:19.512Z,100867.62
2018-06-25T07:05:48.706Z,100858.73
2018-06-25T07:08:17.338Z,100863.81
2018-06-25T07:10:45.706Z,100865.33
2018-06-25T07:13:14.129Z,100860.20
2018-06-25T07:15:46.202Z,100855.88
2018-06-25T07:18:14.924Z,100855.92
2018-06-25T07:20:43.382Z,100859.20
2018-06-25T07:23:11.842Z,100860.45
2018-06-25T07:25:40.412Z,100867.10
2018-06-25T07:28:08.800Z,100867.55
2018-06-25T07:30:37.352Z,100867.72
2018-06-25T07:33:06.128Z,100868.88
2018-06-25T07:35:34.498Z,100873.11
2018-06-25T07:38:02.960Z,100875.23
2018-06-25T07:40:31.287Z,100878.93
2018-06-25T07:42:59.726Z,100885.32
2018-06-25T07:45:28.114Z,100885.73
2018-06-25T07:47:56.646Z,100887.77
2018-06-25T07:50:25.292Z,100880.45
2018-06-25T07:52:53.664Z,100874.13
2018-06-25T07:55:22.201Z,100876.88
2018-06-25T07:57:50.715Z,100873.98
2018-06-25T08:00:20.362Z,100876.19
2018-06-25T08:02:48.732Z,100872.52
2018-06-25T08:05:17.224Z,100877.30
2018-06-25T08:07:50.800Z,100880.80
2018-06-25T08:10:19.866Z,100876.12
2018-06-25T08:12:48.474Z,100883.70
2018-06-25T08:15:17.222Z,100884.06
2018-06-25T08:17:45.704Z,100891.45
2018-06-25T08:20:14.426Z,100890.86
2018-06-25T08:22:42.906Z,100895.21
2018-06-25T08:25:11.199Z,100895.42
2018-06-25T08:27:39.562Z,100899.33
2018-06-25T08:30:08.004Z,100898.34
2018-06-25T08:32:36.318Z,100901.08
2018-06-25T08:35:04.693Z,100901.41
2018-06-25T08:37:33.078Z,100900.37
2018-06-25T08:40:01.398Z,100900.01
2018-06-25T08:42:33.776Z,100898.39
2018-06-25T08:45:03.480Z,100904.54
2018-06-25T08:47:39.820Z,100909.19
2018-06-25T08:50:09.334Z,100902.89
2018-06-25T08:52:48.585Z,100906.23
2018-06-25T08:55:17.093Z,100897.39
2018-06-25T08:57:45.504Z,100908.21
2018-06-25T09:00:13.897Z,100901.82
2018-06-25T09:02:42.355Z,100903.34
2018-06-25T09:05:11.142Z,100905.71
2018-06-25T09:07:39.450Z,100910.23
2018-06-25T09:10:07.908Z,100912.73
2018-06-25T09:12:36.178Z,100910.58
2018-06-25T09:15:04.874Z,100910.39
2018-06-25T09:17:33.172Z,100910.71
2018-06-25T09:20:01.681Z,100899.22
2018-06-25T09:22:30.232Z,100897.87
2018-06-25T09:24:58.592Z,100902.62
2018-06-25T09:27:26.992Z,100903.17
2018-06-25T09:29:55.521Z,100900.28
2018-06-25T09:32:23.800Z,100902.77
2018-06-25T09:34:52.174Z,100909.44
2018-06-25T09:37:20.586Z,100914.14
2018-06-25T09:39:49.014Z,100912.59
2018-06-25T09:42:17.366Z,100916.09
2018-06-25T09:44:45.722Z,100915.76
2018-06-25T09:47:14.062Z,100918.78
2018-06-25T09:49:42.436Z,100913.59
2018-06-25T09:52:10.879Z,100915.94
2018-06-25T09:54:39.277Z,100918.64
2018-06-25T09:57:07.773Z,100912.52
2018-06-25T09:59:36.277Z,100920.20
2018-06-25T10:02:04.734Z,100917.72
2018-06-25T10:04:33.124Z,100912.27
2018-06-25T10:07:01.588Z,100921.82
2018-06-25T10:09:30.066Z,100917.79
2018-06-25T10:11:58.440Z,100912.98
2018-06-25T10:14:26.880Z,100916.76
2018-06-25T10:16:55.300Z,100918.05
2018-06-25T10:19:24.065Z,100918.70
2018-06-25T10:21:52.754Z,100916.36
2018-06-25T10:24:21.127Z,100916.60
2018-06-25T10:26:49.847Z,100910.69
2018-06-25T10:29:18.630Z,100912.02
2018-06-25T10:31:47.045Z,100905.60
2018-06-25T10:34:15.470Z,100907.52
2018-06-25T10:36:44.044Z,100903.70
2018-06-25T10:39:13.038Z,100905.80
2018-06-25T10:41:41.518Z,100909.41
2018-06-25T10:44:10.104Z,100907.83
2018-06-25T10:46:38.553Z,100902.77
2018-06-25T10:49:06.986Z,100901.84
2018-06-25T10:51:35.788Z,100904.22
2018-06-25T10:54:04.490Z,100904.01
2018-06-25T10:56:32.970Z,100905.70
2018-06-25T10:59:01.414Z,100909.93
2018-06-25T11:01:29.752Z,100899.72
2018-06-25T11:03:58.153Z,100903.97
2018-06-25T11:06:26.592Z,100906.16
2018-06-25T11:08:55.540Z,100907.55
2018-06-25T11:11:23.993Z,100900.91
2018-06-25T11:13:52.977Z,100902.91
2018-06-25T11:16:21.432Z,100909.16
2018-06-25T11:18:50.209Z,100902.49
2018-06-25T11:21:19.158Z,100902.09
2018-06-25T11:23:47.550Z,100903.64
2018-06-25T11:26:27.716Z,100897.96
2018-06-25T11:28:56.128Z,100894.91
2018-06-25T11:31:26.928Z,100895.34
2018-06-25T11:33:55.917Z,100894.19
2018-06-25T11:36:24.329Z,100890.23
2018-06-25T11:38:52.798Z,100886.09
2018-06-25T11:41:21.155Z,100889.08
2018-06-25T11:43:50.553Z,100892.27
2018-06-25T11:46:18.984Z,100881.89
2018-06-25T11:48:47.323Z,100880.17
2018-06-25T11:51:15.795Z,100873.83
2018-06-25T11:53:44.340Z,100873.08
2018-06-25T11:56:12.810Z,100871.91
2018-06-25T11:58:41.164Z,100875.22
2018-06-25T12:01:09.929Z,100887.70
2018-06-25T12:03:38.354Z,100889.62
2018-06-25T12:06:07.549Z,100885.09
2018-06-25T12:08:39.341Z,100875.53
2018-06-25T12:11:07.782Z,100875.58
2018-06-25T12:13:36.175Z,100878.52
2018-06-25T12:16:04.961Z,100867.92
2018-06-25T12:18:33.560Z,100868.81
2018-06-25T12:21:01.966Z,100870.82
2018-06-25T12:23:30.647Z,100865.11
2018-06-25T12:25:59.046Z,100874.59
2018-06-25T12:28:27.682Z,100871.34
2018-06-25T12:30:56.057Z,100862.00
2018-06-25T12:33:24.471Z,100868.06
2018-06-25T12:35:53.054Z,100857.61
2018-06-25T12:38:21.685Z,100863.20
2018-06-25T12:40:50.061Z,100857.14
2018-06-25T12:43:18.500Z,100853.08
2018-06-25T12:45:46.837Z,100855.16
2018-06-25T12:48:14.565Z,100851.92
2018-06-25T12:50:42.949Z,100851.75
2018-06-25T12:53:11.377Z,100850.39
2018-06-25T12:55:39.877Z,100851.92
2018-06-25T12:58:08.522Z,100851.73
2018-06-25T13:00:36.906Z,100848.43
2018-06-25T13:03:05.342Z,100857.50
2018-06-25T13:05:34.368Z,100856.70
2018-06-25T13:08:02.977Z,100850.80
2018-06-25T13:10:31.346Z,100838.94
2018-06-25T13:12:59.827Z,100839.98
2018-06-25T13:15:28.447Z,100848.03
2018-06-25T13:17:57.241Z,100848.31
2018-06-25T13:20:25.748Z,100851.56
2018-06-25T13:22:54.226Z,100857.87
2018-06-25T13:25:22.891Z,100857.33
2018-06-25T13:27:51.465Z,100851.22
2018-06-25T13:30:19.934Z,100851.34
2018-06-25T13:32:48.435Z,100855.72
2018-06-25T13:35:16.935Z,100853.93
2018-06-25T13:37:48.767Z,100854.82
2018-06-25T13:40:17.233Z,100857.77
2018-06-25T13:42:47.555Z,100854.14
2018-06-25T13:45:17.469Z,100849.63
2018-06-25T13:47:47.677Z,100848.97
2018-06-25T13:50:21.011Z,100851.80
2018-06-25T13:52:50.792Z,100853.03
2018-06-25T13:55:19.154Z,100857.21
2018-06-25T13:57:47.734Z,100853.03
2018-06-25T14:00:16.247Z,100841.45
2018-06-25T14:02:44.621Z,100839.92
2018-06-25T14:05:13.029Z,100843.45
2018-06-25T14:07:41.401Z,100847.22
2018-06-25T14:10:09.903Z,100842.78
2018-06-25T14:12:38.371Z,100838.98
2018-06-25T14:15:07.546Z,100837.91
2018-06-25T14:17:36.025Z,100835.05
2018-06-25T14:20:04.438Z,100831.72
2018-06-25T14:22:32.934Z,100830.84
2018-06-25T14:25:02.257Z,100835.51
2018-06-25T14:27:35.952Z,100830.93
2018-06-25T14:30:09.186Z,100823.99
2018-06-25T14:32:37.706Z,100821.86
2018-06-25T14:35:11.530Z,100823.67
2018-06-25T14:37:40.031Z,100814.73
2018-06-25T14:40:08.492Z,100817.78
2018-06-25T14:42:36.941Z,100828.57
2018-06-25T14:45:05.494Z,100825.14
2018-06-25T14:47:33.862Z,100823.00
2018-06-25T14:50:02.390Z,100818.52
2018-06-25T14:52:30.921Z,100824.19
2018-06-25T14:54:59.408Z,100829.66
2018-06-25T14:57:27.911Z,100830.13
2018-06-25T14:59:56.598Z,100833.61
2018-06-25T15:02:25.062Z,100834.14
2018-06-25T15:04:53.433Z,100825.06
2018-06-25T15:07:22.114Z,100822.29
2018-06-25T15:09:50.521Z,100816.70
2018-06-25T15:12:18.825Z,100820.75
2018-06-25T15:14:47.353Z,100816.48
2018-06-25T15:17:16.062Z,100819.64
2018-06-25T15:19:44.742Z,100820.27
2018-06-25T15:22:13.112Z,100816.17
2018-06-25T15:24:41.527Z,100820.62
2018-06-25T15:27:10.288Z,100813.64
2018-06-25T15:29:38.835Z,100812.91
2018-06-25T15:32:07.230Z,100820.37
2018-06-25T15:34:35.615Z,100818.61
2018-06-25T15:37:04.023Z,100808.45
2018-06-25T15:39:32.467Z,100810.98
2018-06-25T15:42:00.929Z,100799.16
2018-06-25T15:44:29.681Z,100796.69
2018-06-25T15:46:58.096Z,100783.73
2018-06-25T15:49:26.898Z,100792.53
2018-06-25T15:51:55.286Z,100794.22
2018-06-25T15:54:23.688Z,100789.82
2018-06-25T15:56:52.020Z,100789.17
2018-06-25T15:59:20.449Z,100784.89
2018-06-25T16:01:50.577Z,100787.05
2018-06-25T16:04:19.020Z,100792.81
2018-06-25T16:06:47.431Z,100794.29
2018-06-25T16:09:15.759Z,100794.52
2018-06-25T16:11:44.180Z,100785.72
2018-06-25T16:14:12.595Z,100785.14
2018-06-25T16:16:40.949Z,100785.14
2018-06-25T16:19:10.191Z,100790.56
2018-06-25T16:21:39.499Z,100787.97
2018-06-25T16:24:08.047Z,100793.15
2018-06-25T16:26:36.601Z,100788.55
2018-06-25T16:29:05.453Z,100782.91
2018-06-25T16:31:34.109Z,100784.71
2018-06-25T16:34:03.651Z,100783.50
2018-06-25T16:36:33.756Z,100782.49
2018-06-25T16:39:02.388Z,100787.44
2018-06-25T16:41:30.913Z,100787.21
2018-06-25T16:43:59.522Z,100780.34
2018-06-25T16:46:28.099Z,100779.77
2018-06-25T16:48:56.736Z,100776.05
2018-06-25T16:51:25.274Z,100785.41
2018-06-25T16:53:53.821Z,100780.00
2018-06-25T16:56:22.911Z,100783.59
2018-06-25T16:58:52.513Z,100788.66
2018-06-25T17:01:21.587Z,100792.25
2018-06-25T17:03:50.846Z,100784.72
2018-06-25T17:06:19.425Z,100795.42
2018-06-25T17:08:48.724Z,100782.79
2018-06-25T17:11:18.250Z,100787.77
2018-06-25T17:13:49.105Z,100786.07
2018-06-25T17:16:18.252Z,100790.13
2018-06-25T17:18:46.677Z,100779.19
2018-06-25T17:21:15.208Z,100783.70
2018-06-25T17:23:43.669Z,100781.69
2018-06-25T17:26:13.696Z,100783.62
2018-06-25T17:28:42.253Z,100782.47
2018-06-25T17:31:10.862Z,100785.63
2018-06-25T17:33:39.362Z,100790.81
2018-06-25T17:36:07.749Z,100791.73
2018-06-25T17:38:36.231Z,100789.03
2018-06-25T17:41:04.661Z,100800.18
2018-06-25T17:43:33.111Z,100799.37
2018-06-25T17:46:01.534Z,100797.11
2018-06-25T17:48:30.042Z,100803.88
2018-06-25T17:50:58.443Z,100797.55
2018-06-25T17:53:27.056Z,100806.65
2018-06-25T17:55:55.509Z,100808.32
2018-06-25T17:58:23.969Z,100814.39
2018-06-25T18:00:52.584Z,100813.48
2018-06-25T18:03:21.095Z,100810.53
2018-06-25T18:05:49.483Z,100817.64
2018-06-25T18:08:17.982Z,100821.67
2018-06-25T18:10:46.321Z,100823.67
2018-06-25T18:13:15.309Z,100826.81
2018-06-25T18:15:43.725Z,100834.55
2018-06-25T18:18:12.515Z,100831.59
2018-06-25T18:20:41.044Z,100835.50
2018-06-25T18:23:09.674Z,100831.17
2018-06-25T18:25:38.055Z,100829.80
2018-06-25T18:28:06.468Z,100834.04
2018-06-25T18:30:35.097Z,100829.38
2018-06-25T18:33:03.532Z,100834.00
2018-06-25T18:35:32.059Z,100830.92
2018-06-25T18:38:00.625Z,100833.18
2018-06-25T18:40:29.079Z,100832.23
2018-06-25T18:42:58.085Z,100837.09
2018-06-25T18:45:26.553Z,100836.71
2018-06-25T18:47:54.973Z,100840.86
2018-06-25T18:50:23.332Z,100839.70
2018-06-25T18:52:51.879Z,100857.00
2018-06-25T18:55:21.403Z,100858.09
2018-06-25T18:57:49.910Z,100866.04
2018-06-25T19:00:18.315Z,100866.22
2018-06-25T19:02:47.479Z,100868.57
2018-06-25T19:05:15.965Z,100872.56
2018-06-25T19:07:44.429Z,100877.72
2018-06-25T19:10:12.897Z,100877.33
2018-06-25T19:12:41.409Z,100884.49
2018-06-25T19:15:09.947Z,100884.67
2018-06-25T19:17:38.493Z,100891.05
2018-06-25T19:20:07.178Z,100890.81
2018-06-25T19:22:36.533Z,100896.20
2018-06-25T19:25:05.085Z,100903.17
2018-06-25T19:27:33.601Z,100901.83
2018-06-25T19:30:02.193Z,100904.77
2018-06-25T19:32:30.635Z,100905.18
2018-06-25T19:34:59.185Z,100906.70
2018-06-25T19:37:27.783Z,100909.39
2018-06-25T19:39:56.205Z,100909.57
2018-06-25T19:42:24.801Z,100910.77
2018-06-25T19:44:53.179Z,100920.69
2018-06-25T19:47:21.664Z,100919.27
2018-06-25T19:49:50.306Z,100922.38
2018-06-25T19:52:18.783Z,100921.80
2018-06-25T19:54:47.241Z,100916.26
2018-06-25T19:57:15.721Z,100925.64
2018-06-25T19:59:44.339Z,100918.75
2018-06-25T20:02:12.795Z,100921.12
2018-06-25T20:04:41.257Z,100923.89
2018-06-25T20:07:09.988Z,100924.05
2018-06-25T20:09:38.580Z,100926.58
2018-06-25T20:12:07.672Z,100930.79
2018-06-25T20:14:36.219Z,100935.23
2018-06-25T20:17:04.893Z,100926.05
2018-06-25T20:19:33.607Z,100925.80
2018-06-25T20:22:02.080Z,100923.44
2018-06-25T20:24:30.423Z,100924.38
2018-06-25T20:26:58.907Z,100924.13
2018-06-25T20:29:27.466Z,100927.22
2018-06-25T20:31:55.893Z,100936.56
2018-06-25T20:34:24.765Z,100927.05
2018-06-25T20:36:53.472Z,100939.78
2018-06-25T20:39:21.871Z,100943.81
2018-06-25T20:41:50.288Z,100943.28
2018-06-25T20:44:18.723Z,100946.75
2018-06-25T20:46:47.131Z,100945.08
2018-06-25T20:49:15.755Z,100941.61
2018-06-25T20:51:44.175Z,100947.70
2018-06-25T20:54:12.635Z,100957.05
2018-06-25T20:56:41.167Z,100951.20
2018-06-25T20:59:09.675Z,100958.71
2018-06-25T21:01:38.166Z,100956.66
2018-06-25T21:04:06.607Z,100963.22
2018-06-25T21:06:35.000Z,100959.75
2018-06-25T21:09:03.535Z,100964.08
2018-06-25T21:11:31.909Z,100961.46
2018-06-25T21:14:00.311Z,100959.02
2018-06-25T21:16:28.679Z,100971.77
2018-06-25T21:18:57.038Z,100971.20
2018-06-25T21:21:25.428Z,100970.89
2018-06-25T21:23:53.970Z,100974.47
2018-06-25T21:26:22.358Z,100969.08
2018-06-25T21:28:56.253Z,100963.20
2018-06-25T21:31:24.798Z,100963.84
2018-06-25T21:33:53.134Z,100964.17
2018-06-25T21:36:21.522Z,100964.38
2018-06-25T21:38:49.962Z,100961.69
2018-06-25T21:41:18.355Z,100967.14
2018-06-25T21:43:46.775Z,100975.01
2018-06-25T21:46:15.122Z,100972.07
2018-06-25T21:48:43.564Z,100967.54
2018-06-25T21:51:12.053Z,100974.77
2018-06-25T21:53:40.419Z,100974.52
2018-06-25T21:56:08.871Z,100977.70
2018-06-25T21:58:37.241Z,100976.56
2018-06-25T22:01:05.636Z,100978.16
2018-06-25T22:03:34.059Z,100981.09
2018-06-25T22:06:02.435Z,100981.09
2018-06-25T22:08:30.816Z,100984.35
2018-06-25T22:10:59.180Z,100981.09
2018-06-25T22:13:27.547Z,100974.61
2018-06-25T22:15:56.029Z,100979.19
2018-06-25T22:18:24.385Z,100987.83
2018-06-25T22:20:52.838Z,100980.84
2018-06-25T22:23:21.234Z,100977.59
2018-06-25T22:25:49.725Z,100979.41
2018-06-25T22:28:18.135Z,100979.72
2018-06-25T22:30:46.670Z,100978.88
2018-06-25T22:33:15.033Z,100978.95
2018-06-25T22:35:43.391Z,100982.06
2018-06-25T22:38:11.834Z,100977.25
2018-06-25T22:40:40.195Z,100978.84
2018-06-25T22:43:08.662Z,100979.80
2018-06-25T22:45:37.915Z,100985.67
2018-06-25T22:48:06.371Z,100983.20
2018-06-25T22:50:34.799Z,100976.72
2018-06-25T22:53:03.228Z,100975.06
2018-06-25T22:55:33.441Z,100974.10
2018-06-25T22:58:01.881Z,100970.14
2018-06-25T23:00:30.422Z,100971.02
2018-06-25T23:02:58.820Z,100977.56
2018-06-25T23:05:27.354Z,100977.31
2018-06-25T23:07:55.710Z,100973.91
2018-06-25T23:10:24.046Z,100971.55
2018-06-25T23:12:52.396Z,100974.77
2018-06-25T23:15:20.781Z,100975.15
2018-06-25T23:17:49.184Z,100969.84
2018-06-25T23:21:46.989Z,100973.09
2018-06-25T23:24:15.342Z,100975.53
2018-06-25T23:26:43.729Z,100980.09
2018-06-25T23:29:12.106Z,100979.95
2018-06-25T23:31:40.419Z,100978.42
2018-06-25T23:34:08.770Z,100968.80
2018-06-25T23:36:37.611Z,100977.96
2018-06-25T23:39:08.881Z,100968.87
2018-06-25T23:41:37.274Z,100976.69
2018-06-25T23:44:05.674Z,100979.37
2018-06-25T23:46:34.034Z,100980.38
2018-06-25T23:49:02.406Z,100979.83
2018-06-25T23:51:30.769Z,100979.11
2018-06-25T23:53:59.134Z,100983.02
2018-06-25T23:56:27.576Z,100987.61
2018-06-25T23:58:56.002Z,100985.36
